createdAt,value
2022-09-12T00:01:37.891Z,7.18
2022-09-12T00:04:05.063Z,7.53
2022-09-12T00:06:33.541Z,7.65
2022-09-12T00:09:02.365Z,7.90
2022-09-12T00:11:29.689Z,7.50
2022-09-12T00:13:58.266Z,7.65
2022-09-12T00:16:26.694Z,6.25
2022-09-12T00:18:53.881Z,6.75
2022-09-12T00:21:21.441Z,5.63
2022-09-12T00:23:49.076Z,5.47
2022-09-12T00:26:17.125Z,5.18
2022-09-12T00:28:44.612Z,6.03
2022-09-12T00:31:13.571Z,5.60
2022-09-12T00:33:41.072Z,5.20
2022-09-12T00:36:09.530Z,6.03
2022-09-12T00:38:38.540Z,5.97
2022-09-12T00:41:06.503Z,6.20
2022-09-12T00:43:38.110Z,5.97
2022-09-12T00:46:07.608Z,6.15
2022-09-12T00:48:37.649Z,6.03
2022-09-12T00:51:04.846Z,5.82
2022-09-12T00:53:32.008Z,5.93
2022-09-12T00:55:59.409Z,7.15
2022-09-12T00:58:31.223Z,6.82
2022-09-12T01:00:58.913Z,6.75
2022-09-12T01:03:26.735Z,6.57
2022-09-12T01:05:59.557Z,6.97
2022-09-12T01:08:27.081Z,6.95
2022-09-12T01:10:54.309Z,6.47
2022-09-12T01:13:21.478Z,7.05
2022-09-12T01:15:48.510Z,6.80
2022-09-12T01:18:25.566Z,5.93
2022-09-12T01:21:11.447Z,5.50
2022-09-12T01:23:57.331Z,5.35
2022-09-12T01:26:43.290Z,5.20
2022-09-12T01:29:22.577Z,6.00
2022-09-12T01:31:49.653Z,6.60
2022-09-12T01:34:28.159Z,5.88
2022-09-12T01:36:55.928Z,5.55
2022-09-12T01:39:22.899Z,6.22
2022-09-12T01:41:58.689Z,7.03
2022-09-12T01:44:25.667Z,6.80
2022-09-12T01:46:52.642Z,7.30
2022-09-12T01:49:24.544Z,7.63
2022-09-12T01:51:58.227Z,7.82
2022-09-12T01:54:32.970Z,7.97
2022-09-12T01:57:02.187Z,8.00
2022-09-12T01:59:32.477Z,8.55
2022-09-12T02:02:03.203Z,8.75
2022-09-12T02:04:34.378Z,9.07
2022-09-12T02:07:09.468Z,8.82
2022-09-12T02:09:39.222Z,8.70
2022-09-12T02:12:08.722Z,9.70
2022-09-12T02:14:38.421Z,9.10
2022-09-12T02:17:08.649Z,9.25
2022-09-12T02:19:40.110Z,9.65
2022-09-12T02:22:07.751Z,9.88
2022-09-12T02:24:39.396Z,8.40
2022-09-12T02:27:06.496Z,8.88
2022-09-12T02:29:33.537Z,8.85
2022-09-12T02:32:05.941Z,7.43
2022-09-12T02:34:33.401Z,6.93
2022-09-12T02:37:07.558Z,7.35
2022-09-12T02:39:35.598Z,6.80
2022-09-12T02:42:03.445Z,6.22
2022-09-12T02:44:31.286Z,6.53
2022-09-12T02:47:01.874Z,6.57
2022-09-12T02:49:28.901Z,6.72
2022-09-12T02:51:56.082Z,6.68
2022-09-12T02:54:23.746Z,6.50
2022-09-12T02:56:50.803Z,7.68
2022-09-12T02:59:19.484Z,6.80
2022-09-12T03:01:52.358Z,7.50
2022-09-12T03:04:37.472Z,7.53
2022-09-12T03:07:04.472Z,7.28
2022-09-12T03:09:45.870Z,7.30
2022-09-12T03:12:15.644Z,7.32
2022-09-12T03:14:42.637Z,7.45
2022-09-12T03:17:21.928Z,7.80
2022-09-12T03:20:10.680Z,7.13
2022-09-12T03:22:57.721Z,7.20
2022-09-12T03:25:28.415Z,7.55
2022-09-12T03:27:58.830Z,7.32
2022-09-12T03:30:26.419Z,7.22
2022-09-12T03:32:54.776Z,6.95
2022-09-12T03:35:23.547Z,6.75
2022-09-12T03:37:51.920Z,7.50
2022-09-12T03:40:19.540Z,7.85
2022-09-12T03:42:46.606Z,6.63
2022-09-12T03:45:13.979Z,6.82
2022-09-12T03:47:41.248Z,6.82
2022-09-12T03:50:08.559Z,6.28
2022-09-12T03:52:35.883Z,5.95
2022-09-12T03:55:02.944Z,6.50
2022-09-12T03:57:29.960Z,6.40
2022-09-12T03:59:56.974Z,6.60
2022-09-12T04:02:24.102Z,6.85
2022-09-12T04:04:51.304Z,8.07
2022-09-12T04:07:18.594Z,7.38
2022-09-12T04:09:45.631Z,6.80
2022-09-12T04:12:13.897Z,6.28
2022-09-12T04:14:41.117Z,5.20
2022-09-12T04:17:08.438Z,6.35
2022-09-12T04:19:35.460Z,6.43
2022-09-12T04:22:02.465Z,6.60
2022-09-12T04:24:29.445Z,7.07
2022-09-12T04:26:56.523Z,7.28
2022-09-12T04:29:23.585Z,7.30
2022-09-12T04:31:50.802Z,9.10
2022-09-12T04:34:18.092Z,9.13
2022-09-12T04:36:45.129Z,9.23
2022-09-12T04:39:12.613Z,9.93
2022-09-12T04:41:41.753Z,8.80
2022-09-12T04:44:11.498Z,9.52
2022-09-12T04:46:39.871Z,9.50
2022-09-12T04:49:06.926Z,10.27
2022-09-12T04:51:35.952Z,12.48
2022-09-12T04:54:04.842Z,11.55
2022-09-12T04:56:32.047Z,11.60
2022-09-12T04:59:00.451Z,12.77
2022-09-12T05:01:28.174Z,14.07
2022-09-12T05:03:55.794Z,13.38
2022-09-12T05:06:24.150Z,14.23
2022-09-12T05:08:52.139Z,14.88
2022-09-12T05:11:24.775Z,14.98
2022-09-12T05:13:53.792Z,14.73
2022-09-12T05:16:21.064Z,14.02
2022-09-12T05:18:48.927Z,14.05
2022-09-12T05:21:16.932Z,14.45
2022-09-12T05:23:44.199Z,14.10
2022-09-12T05:26:13.888Z,14.70
2022-09-12T05:28:41.084Z,14.38
2022-09-12T05:31:11.568Z,14.15
2022-09-12T05:33:39.377Z,14.40
2022-09-12T05:36:07.505Z,15.15
2022-09-12T05:38:38.202Z,15.52
2022-09-12T05:41:06.214Z,14.90
2022-09-12T05:43:34.076Z,14.05
2022-09-12T05:46:02.068Z,15.20
2022-09-12T05:48:29.140Z,15.13
2022-09-12T05:51:03.197Z,15.10
2022-09-12T05:53:31.246Z,14.82
2022-09-12T05:56:10.749Z,15.60
2022-09-12T05:58:38.975Z,15.00
2022-09-12T06:01:11.397Z,14.65
2022-09-12T06:03:42.619Z,15.68
2022-09-12T06:06:13.249Z,15.25
2022-09-12T06:08:41.157Z,15.40
2022-09-12T06:11:09.650Z,15.98
2022-09-12T06:13:37.701Z,13.88
2022-09-12T06:16:08.374Z,14.88
2022-09-12T06:18:36.126Z,15.63
2022-09-12T06:21:03.970Z,15.02
2022-09-12T06:23:31.111Z,14.77
2022-09-12T06:25:58.165Z,13.80
2022-09-12T06:28:25.587Z,15.20
2022-09-12T06:30:52.981Z,14.40
2022-09-12T06:33:20.779Z,12.05
2022-09-12T06:35:47.887Z,14.45
2022-09-12T06:38:15.880Z,14.30
2022-09-12T06:40:47.069Z,12.80
2022-09-12T06:43:14.176Z,15.15
2022-09-12T06:45:41.293Z,14.63
2022-09-12T06:48:08.390Z,12.88
2022-09-12T06:50:35.395Z,14.85
2022-09-12T06:53:02.498Z,14.48
2022-09-12T06:55:29.873Z,14.88
2022-09-12T06:57:56.934Z,15.88
2022-09-12T07:00:24.210Z,14.75
2022-09-12T07:02:55.336Z,16.35
2022-09-12T07:05:22.545Z,16.60
2022-09-12T07:07:49.572Z,15.23
2022-09-12T07:10:21.592Z,15.63
2022-09-12T07:12:49.285Z,14.23
2022-09-12T07:15:16.678Z,15.05
2022-09-12T07:17:43.694Z,14.70
2022-09-12T07:20:10.797Z,13.77
2022-09-12T07:22:37.841Z,16.08
2022-09-12T07:25:05.085Z,15.20
2022-09-12T07:27:32.093Z,15.32
2022-09-12T07:29:59.924Z,15.65
2022-09-12T07:32:27.430Z,15.63
2022-09-12T07:34:54.581Z,15.18
2022-09-12T07:37:21.612Z,12.95
2022-09-12T07:39:48.644Z,16.17
2022-09-12T07:42:15.689Z,13.38
2022-09-12T07:44:44.294Z,14.20
2022-09-12T07:47:11.798Z,15.48
2022-09-12T07:49:38.788Z,15.00
2022-09-12T07:52:06.353Z,15.07
2022-09-12T07:54:33.374Z,15.25
2022-09-12T07:57:00.399Z,14.18
2022-09-12T07:59:50.946Z,9.77
2022-09-12T08:02:17.545Z,12.07
2022-09-12T08:04:44.888Z,13.85
2022-09-12T08:07:12.744Z,12.90
2022-09-12T08:09:39.758Z,13.40
2022-09-12T08:12:06.928Z,13.65
2022-09-12T08:14:33.956Z,9.07
2022-09-12T08:17:00.980Z,12.30
2022-09-12T08:19:27.977Z,14.30
2022-09-12T08:21:54.972Z,7.65
2022-09-12T08:24:22.003Z,8.48
2022-09-12T08:26:49.213Z,9.85
2022-09-12T08:29:16.254Z,14.35
2022-09-12T08:31:43.316Z,8.30
2022-09-12T08:34:10.411Z,7.97
2022-09-12T08:36:37.402Z,10.68
2022-09-12T08:39:05.918Z,7.32
2022-09-12T08:41:38.385Z,13.00
2022-09-12T08:44:14.809Z,14.38
2022-09-12T08:46:48.155Z,14.77
2022-09-12T08:49:20.741Z,12.50
2022-09-12T08:51:48.002Z,13.68
2022-09-12T08:54:24.161Z,15.43
2022-09-12T08:56:51.779Z,12.23
2022-09-12T08:59:18.851Z,15.70
2022-09-12T09:01:46.170Z,12.57
2022-09-12T09:04:32.150Z,15.52
2022-09-12T09:07:18.184Z,13.77
2022-09-12T09:09:45.157Z,11.52
2022-09-12T09:12:32.369Z,12.05
2022-09-12T09:15:11.267Z,11.75
2022-09-12T09:17:41.079Z,12.65
2022-09-12T09:20:16.532Z,12.23
2022-09-12T09:22:45.638Z,12.27
2022-09-12T09:25:23.822Z,10.23
2022-09-12T09:27:58.828Z,13.90
2022-09-12T09:30:25.890Z,5.88
2022-09-12T09:32:58.117Z,8.38
2022-09-12T09:35:41.035Z,5.30
2022-09-12T09:38:17.184Z,12.45
2022-09-12T09:41:02.294Z,6.65
2022-09-12T09:43:29.533Z,8.23
2022-09-12T09:45:57.594Z,12.55
2022-09-12T09:48:32.438Z,6.95
2022-09-12T09:51:01.697Z,9.32
2022-09-12T09:53:28.700Z,11.40
2022-09-12T09:55:57.097Z,9.10
2022-09-12T09:58:33.806Z,11.10
2022-09-12T10:01:01.950Z,8.98
2022-09-12T10:03:28.975Z,8.18
2022-09-12T10:05:59.858Z,6.72
2022-09-12T10:08:39.124Z,6.47
2022-09-12T10:11:07.740Z,6.55
2022-09-12T10:13:37.476Z,5.22
2022-09-12T10:16:18.912Z,5.97
2022-09-12T10:18:46.394Z,7.30
2022-09-12T10:21:14.875Z,6.80
2022-09-12T10:23:42.870Z,5.93
2022-09-12T10:26:11.365Z,5.80
2022-09-12T10:28:43.374Z,5.05
2022-09-12T10:31:12.353Z,6.40
2022-09-12T10:33:52.819Z,4.93
2022-09-12T10:36:20.476Z,5.20
2022-09-12T10:38:51.838Z,4.90
2022-09-12T10:41:19.298Z,4.50
2022-09-12T10:43:46.612Z,3.75
2022-09-12T10:46:16.633Z,4.43
2022-09-12T10:48:44.377Z,4.53
2022-09-12T10:51:29.438Z,3.88
2022-09-12T10:53:58.110Z,4.63
2022-09-12T10:56:29.187Z,4.38
2022-09-12T10:59:19.398Z,4.55
2022-09-12T11:02:07.522Z,4.50
2022-09-12T11:04:40.439Z,3.85
2022-09-12T11:07:28.690Z,4.55
2022-09-12T11:10:10.708Z,3.80
2022-09-12T11:12:56.200Z,4.32
2022-09-12T11:15:42.278Z,4.05
2022-09-12T11:18:12.316Z,4.07
2022-09-12T11:20:54.537Z,4.32
2022-09-12T11:23:40.027Z,4.38
2022-09-12T11:26:06.999Z,4.68
2022-09-12T11:28:47.083Z,4.22
2022-09-12T11:31:30.810Z,3.90
2022-09-12T11:34:00.640Z,4.25
2022-09-12T11:36:50.305Z,4.93
2022-09-12T11:39:19.802Z,4.10
2022-09-12T11:41:50.659Z,4.25
2022-09-12T11:44:27.067Z,3.97
2022-09-12T11:46:54.186Z,4.15
2022-09-12T11:49:35.361Z,3.92
2022-09-12T11:52:15.216Z,3.83
2022-09-12T11:54:42.216Z,4.10
2022-09-12T11:57:16.495Z,4.05
2022-09-12T11:59:46.902Z,3.65
2022-09-12T12:02:18.051Z,2.78
2022-09-12T12:04:55.717Z,3.78
2022-09-12T12:07:22.773Z,3.53
2022-09-12T12:09:51.008Z,3.28
2022-09-12T12:12:23.154Z,3.00
2022-09-12T12:14:51.644Z,3.75
2022-09-12T12:17:22.965Z,3.28
2022-09-12T12:20:02.151Z,3.05
2022-09-12T12:22:32.173Z,3.60
2022-09-12T12:43:29.290Z,3.47
2022-09-12T12:46:04.420Z,3.35
2022-09-12T12:48:33.274Z,3.90
2022-09-12T12:51:21.093Z,3.60
2022-09-12T12:53:48.191Z,3.38
2022-09-12T12:56:27.173Z,3.47
2022-09-12T12:59:01.400Z,3.45
2022-09-12T13:01:29.108Z,3.00
2022-09-12T13:03:59.036Z,2.80
2022-09-12T13:06:31.981Z,3.33
2022-09-12T13:09:01.527Z,3.60
2022-09-12T13:11:31.171Z,3.60
2022-09-12T13:14:06.917Z,3.55
2022-09-12T13:16:35.320Z,3.53
2022-09-12T13:19:04.376Z,3.10
2022-09-12T13:21:31.552Z,3.25
2022-09-12T13:24:02.861Z,3.47
2022-09-12T13:26:33.809Z,3.60
2022-09-12T13:29:15.656Z,3.90
2022-09-12T13:31:46.723Z,3.17
2022-09-12T13:34:20.795Z,3.75
2022-09-12T13:37:06.534Z,3.80
2022-09-12T13:39:49.556Z,3.70
2022-09-12T13:42:35.235Z,3.58
2022-09-12T13:45:05.774Z,3.53
2022-09-12T13:47:41.805Z,3.50
2022-09-12T13:50:13.429Z,3.42
2022-09-12T13:52:40.673Z,3.20
2022-09-12T13:55:15.790Z,3.13
2022-09-12T13:57:42.793Z,4.20
2022-09-12T14:00:19.800Z,3.53
2022-09-12T14:02:47.937Z,3.33
2022-09-12T14:05:21.162Z,3.38
2022-09-12T14:07:52.133Z,3.53
2022-09-12T14:10:24.393Z,3.40
2022-09-12T14:12:51.805Z,3.45
2022-09-12T14:15:29.711Z,3.47
2022-09-12T14:18:01.212Z,3.45
2022-09-12T14:20:32.393Z,2.92
2022-09-12T14:23:01.323Z,3.40
2022-09-12T14:25:29.987Z,3.17
2022-09-12T14:27:57.537Z,2.85
2022-09-12T14:30:31.976Z,2.85
2022-09-12T14:33:11.142Z,2.92
2022-09-12T14:35:49.611Z,3.20
2022-09-12T14:38:16.627Z,2.80
2022-09-12T14:40:43.714Z,3.00
2022-09-12T14:43:36.827Z,3.45
2022-09-12T14:46:05.609Z,2.88
2022-09-12T14:48:36.285Z,3.38
2022-09-12T14:51:04.164Z,3.25
2022-09-12T14:53:32.594Z,3.20
2022-09-12T14:56:06.905Z,2.83
2022-09-12T14:58:34.142Z,3.17
2022-09-12T15:01:22.980Z,2.85
2022-09-12T15:03:52.061Z,3.10
2022-09-12T15:06:32.611Z,2.78
2022-09-12T15:09:14.962Z,3.28
2022-09-12T15:11:41.969Z,3.42
2022-09-12T15:14:15.498Z,2.80
2022-09-12T15:16:42.526Z,3.08
2022-09-12T15:19:09.698Z,2.75
2022-09-12T15:21:36.738Z,3.17
2022-09-12T15:24:03.910Z,2.92
2022-09-12T15:26:31.630Z,2.72
2022-09-12T15:28:58.719Z,2.83
2022-09-12T15:31:29.911Z,2.88
2022-09-12T15:33:58.012Z,2.85
2022-09-12T15:36:25.472Z,2.70
2022-09-12T15:38:52.691Z,2.83
2022-09-12T15:41:21.672Z,2.80
2022-09-12T15:43:48.878Z,3.10
2022-09-12T15:46:17.077Z,3.10
2022-09-12T15:48:44.231Z,2.67
2022-09-12T15:51:19.049Z,2.88
2022-09-12T15:53:47.309Z,2.55
2022-09-12T15:56:18.554Z,2.72
2022-09-12T15:58:57.779Z,2.78
2022-09-12T16:01:26.271Z,3.08
2022-09-12T16:03:53.359Z,3.20
2022-09-12T16:06:20.410Z,3.42
2022-09-12T16:08:47.509Z,3.22
2022-09-12T16:11:17.909Z,3.75
2022-09-12T16:13:44.912Z,2.97
2022-09-12T16:16:11.929Z,3.03
2022-09-12T16:18:42.559Z,3.28
2022-09-12T16:21:14.693Z,2.70
2022-09-12T16:23:45.950Z,3.13
2022-09-12T16:26:13.043Z,2.78
2022-09-12T16:28:40.607Z,3.17
2022-09-12T16:31:08.449Z,3.83
2022-09-12T16:33:35.711Z,3.70
2022-09-12T16:36:03.807Z,3.80
2022-09-12T16:38:31.137Z,2.65
2022-09-12T16:41:01.796Z,3.22
2022-09-12T16:43:28.761Z,3.70
2022-09-12T16:46:09.594Z,3.20
2022-09-12T16:48:36.820Z,3.22
2022-09-12T16:51:07.238Z,3.15
2022-09-12T16:53:34.992Z,2.88
2022-09-12T16:56:02.106Z,3.67
2022-09-12T16:58:32.315Z,3.88
2022-09-12T17:01:06.982Z,3.63
2022-09-12T17:03:34.218Z,3.00
2022-09-12T17:06:03.812Z,3.50
2022-09-12T17:08:30.870Z,3.85
2022-09-12T17:11:01.819Z,3.45
2022-09-12T17:13:46.638Z,3.20
2022-09-12T17:16:16.467Z,3.22
2022-09-12T17:18:43.507Z,4.03
2022-09-12T17:21:11.256Z,3.50
2022-09-12T17:23:38.429Z,3.65
2022-09-12T17:26:05.985Z,3.45
2022-09-12T17:28:33.027Z,4.03
2022-09-12T17:31:01.030Z,3.80
2022-09-12T17:33:28.907Z,3.65
2022-09-12T17:35:55.979Z,4.43
2022-09-12T17:38:25.375Z,4.22
2022-09-12T17:40:59.397Z,3.90
2022-09-12T17:43:27.118Z,4.03
2022-09-12T17:45:57.353Z,4.00
2022-09-12T17:48:24.489Z,4.13
2022-09-12T17:50:51.949Z,4.55
2022-09-12T17:53:18.965Z,4.43
2022-09-12T17:55:46.006Z,4.85
2022-09-12T17:58:13.071Z,5.28
2022-09-12T18:00:59.065Z,4.45
2022-09-12T18:03:26.151Z,4.60
2022-09-12T18:05:54.925Z,4.55
2022-09-12T18:08:22.886Z,4.22
2022-09-12T18:10:51.043Z,4.45
2022-09-12T18:13:18.155Z,4.20
2022-09-12T18:15:45.175Z,4.80
2022-09-12T18:18:12.323Z,4.35
2022-09-12T18:20:39.382Z,4.60
2022-09-12T18:23:06.604Z,4.82
2022-09-12T18:25:33.616Z,5.15
2022-09-12T18:28:00.630Z,4.38
2022-09-12T18:30:27.724Z,4.72
2022-09-12T18:32:54.750Z,4.55
2022-09-12T18:35:21.907Z,4.80
2022-09-12T18:37:48.928Z,5.75
2022-09-12T18:40:16.023Z,4.30
2022-09-12T18:42:43.067Z,4.82
2022-09-12T18:45:10.233Z,5.03
2022-09-12T18:47:37.269Z,4.55
2022-09-12T18:50:04.460Z,4.72
2022-09-12T18:52:32.129Z,4.25
2022-09-12T18:54:59.108Z,4.57
2022-09-12T18:57:26.090Z,4.93
2022-09-12T18:59:53.853Z,5.00
2022-09-12T19:02:20.858Z,4.85
2022-09-12T19:04:47.910Z,5.15
2022-09-12T19:07:16.821Z,4.88
2022-09-12T19:09:44.569Z,4.88
2022-09-12T19:12:11.798Z,4.88
2022-09-12T19:14:38.880Z,5.30
2022-09-12T19:17:05.977Z,5.72
2022-09-12T19:19:33.041Z,4.18
2022-09-12T19:22:00.127Z,4.75
2022-09-12T19:24:27.258Z,4.88
2022-09-12T19:26:54.292Z,4.60
2022-09-12T19:29:21.278Z,4.68
2022-09-12T19:31:48.309Z,4.72
2022-09-12T19:34:15.535Z,5.25
2022-09-12T19:36:47.070Z,5.22
2022-09-12T19:39:14.737Z,5.10
2022-09-12T19:41:42.431Z,5.45
2022-09-12T19:44:09.553Z,5.10
2022-09-12T19:46:36.646Z,5.43
2022-09-12T19:49:03.810Z,5.35
2022-09-12T19:51:31.388Z,5.50
2022-09-12T19:53:58.706Z,5.63
2022-09-12T19:56:25.800Z,5.40
2022-09-12T19:58:56.439Z,5.65
2022-09-12T20:01:25.175Z,5.20
2022-09-12T20:03:55.204Z,7.75
2022-09-12T20:06:22.527Z,5.68
2022-09-12T20:08:49.931Z,5.55
2022-09-12T20:11:18.300Z,5.40
2022-09-12T20:13:45.834Z,5.80
2022-09-12T20:16:20.385Z,5.75
2022-09-12T20:18:49.404Z,5.55
2022-09-12T20:21:17.966Z,5.10
2022-09-12T20:23:45.417Z,5.68
2022-09-12T20:26:13.025Z,5.45
2022-09-12T20:28:40.599Z,5.78
2022-09-12T20:31:09.331Z,5.70
2022-09-12T20:33:36.389Z,5.70
2022-09-12T20:36:13.967Z,7.30
2022-09-12T20:38:41.465Z,6.22
2022-09-12T20:41:12.622Z,6.10
2022-09-12T20:43:40.000Z,5.95
2022-09-12T20:46:09.580Z,5.68
2022-09-12T20:48:36.928Z,5.72
2022-09-12T20:51:04.043Z,6.25
2022-09-12T20:53:34.801Z,5.72
2022-09-12T20:56:02.475Z,6.18
2022-09-12T20:58:29.512Z,5.90
2022-09-12T21:00:56.565Z,5.78
2022-09-12T21:03:23.589Z,6.22
2022-09-12T21:05:50.623Z,5.97
2022-09-12T21:08:17.831Z,6.60
2022-09-12T21:10:45.062Z,6.45
2022-09-12T21:13:12.482Z,6.03
2022-09-12T21:15:40.568Z,5.95
2022-09-12T21:18:07.722Z,6.50
2022-09-12T21:20:35.028Z,5.80
2022-09-12T21:23:02.084Z,6.20
2022-09-12T21:25:29.898Z,5.53
2022-09-12T21:27:56.941Z,6.05
2022-09-12T21:30:24.006Z,5.97
2022-09-12T21:32:51.287Z,7.53
2022-09-12T21:35:18.358Z,6.22
2022-09-12T21:37:45.386Z,6.82
2022-09-12T21:40:12.468Z,6.90
2022-09-12T21:42:39.506Z,7.10
2022-09-12T21:45:06.708Z,7.50
2022-09-12T21:47:33.707Z,7.53
2022-09-12T21:50:00.779Z,7.55
2022-09-12T21:52:28.043Z,7.30
2022-09-12T21:54:56.324Z,7.28
2022-09-12T21:57:23.373Z,7.18
2022-09-12T21:59:50.390Z,7.32
2022-09-12T22:02:17.507Z,8.45
2022-09-12T22:04:44.634Z,8.40
2022-09-12T22:07:11.651Z,9.07
2022-09-12T22:09:38.641Z,9.02
2022-09-12T22:12:05.695Z,8.25
2022-09-12T22:14:33.110Z,8.43
2022-09-12T22:17:00.240Z,7.97
2022-09-12T22:19:27.258Z,8.27
2022-09-12T22:22:12.853Z,7.13
2022-09-12T22:24:40.075Z,6.85
2022-09-12T22:27:07.744Z,5.75
2022-09-12T22:29:35.920Z,5.65
2022-09-12T22:32:03.084Z,5.35
2022-09-12T22:34:30.676Z,4.72
2022-09-12T22:36:57.747Z,4.05
2022-09-12T22:39:25.054Z,4.18
2022-09-12T22:41:52.103Z,4.00
2022-09-12T22:44:19.469Z,4.00
2022-09-12T22:46:46.466Z,4.00
2022-09-12T22:49:13.556Z,3.70
2022-09-12T22:51:40.758Z,3.75
2022-09-12T22:54:08.002Z,3.60
2022-09-12T22:56:35.310Z,4.18
2022-09-12T22:59:02.460Z,3.33
2022-09-12T23:01:31.743Z,3.80
2022-09-12T23:03:58.955Z,4.00
2022-09-12T23:06:26.104Z,3.35
2022-09-12T23:08:53.181Z,4.07
2022-09-12T23:11:21.422Z,3.85
2022-09-12T23:13:49.563Z,3.65
2022-09-12T23:16:23.844Z,3.90
2022-09-12T23:18:51.215Z,4.00
2022-09-12T23:21:19.788Z,3.80
2022-09-12T23:23:46.919Z,3.72
2022-09-12T23:26:15.117Z,3.85
2022-09-12T23:28:42.999Z,3.63
2022-09-12T23:31:10.287Z,3.30
2022-09-12T23:33:37.639Z,3.78
2022-09-12T23:36:06.246Z,3.80
2022-09-12T23:38:33.949Z,3.90
2022-09-12T23:41:01.591Z,4.00
2022-09-12T23:43:28.954Z,4.28
2022-09-12T23:45:55.992Z,3.78
2022-09-12T23:48:23.221Z,3.70
2022-09-12T23:50:50.293Z,4.30
2022-09-12T23:53:18.009Z,3.80
2022-09-12T23:55:45.452Z,4.07
2022-09-12T23:58:12.522Z,4.40
